createdAt,value
2023-06-14T00:02:42.868Z,5.70
2023-06-14T00:05:10.634Z,4.80
2023-06-14T00:14:17.483Z,9.00
2023-06-14T00:16:45.141Z,7.20
2023-06-14T00:19:13.100Z,8.20
2023-06-14T00:21:40.776Z,7.70
2023-06-14T00:24:09.345Z,10.40
2023-06-14T00:26:37.062Z,6.60
2023-06-14T00:29:05.170Z,4.40
2023-06-14T00:31:33.241Z,7.80
2023-06-14T00:41:43.340Z,11.10
2023-06-14T00:44:11.134Z,8.60
2023-06-14T00:46:38.763Z,8.60
2023-06-14T00:49:07.501Z,8.70
2023-06-14T00:51:35.228Z,9.20
2023-06-14T00:54:02.802Z,5.40
2023-06-14T00:56:30.729Z,6.20
2023-06-14T00:58:58.408Z,7.40
2023-06-14T01:01:26.609Z,4.10
2023-06-14T01:03:54.332Z,4.40
2023-06-14T01:06:30.515Z,9.20
2023-06-14T01:09:05.030Z,6.70
2023-06-14T01:11:59.239Z,7.30
2023-06-14T01:14:26.838Z,7.70
2023-06-14T01:16:54.847Z,7.20
2023-06-14T01:19:23.857Z,10.00
2023-06-14T01:29:33.691Z,9.60
2023-06-14T01:32:02.110Z,6.60
2023-06-14T01:34:32.921Z,4.80
2023-06-14T01:37:01.530Z,4.20
2023-06-14T01:39:29.194Z,3.40
2023-06-14T01:41:58.882Z,5.20
2023-06-14T01:44:26.648Z,2.80
2023-06-14T01:46:54.345Z,4.60
2023-06-14T01:49:24.583Z,5.30
2023-06-14T01:51:52.036Z,6.00
2023-06-14T01:54:20.186Z,5.80
2023-06-14T01:56:47.862Z,8.30
2023-06-14T01:59:15.403Z,4.00
2023-06-14T02:01:43.086Z,4.60
2023-06-14T02:11:48.899Z,3.90
2023-06-14T02:14:18.173Z,4.50
2023-06-14T02:16:50.746Z,6.90
2023-06-14T02:19:18.624Z,6.20
2023-06-14T02:21:46.418Z,4.50
2023-06-14T02:24:16.573Z,4.70
2023-06-14T02:26:44.385Z,6.40
2023-06-14T02:36:54.469Z,17.80
2023-06-14T02:39:24.427Z,17.60
2023-06-14T02:41:52.072Z,16.60
2023-06-14T02:51:57.975Z,9.50
2023-06-14T03:02:07.021Z,16.60
2023-06-14T03:04:38.626Z,13.70
2023-06-14T03:07:11.804Z,10.80
2023-06-14T03:09:40.986Z,13.50
2023-06-14T03:12:11.205Z,13.00
2023-06-14T03:14:39.774Z,13.70
2023-06-14T03:17:09.748Z,10.90
2023-06-14T03:27:17.454Z,10.60
2023-06-14T03:37:27.644Z,9.00
2023-06-14T03:39:55.507Z,10.80
2023-06-14T03:50:01.623Z,10.80
2023-06-14T03:52:29.601Z,6.10
2023-06-14T03:55:55.474Z,5.90
2023-06-14T03:57:45.719Z,6.40
2023-06-14T04:07:52.249Z,5.50
2023-06-14T04:10:21.827Z,4.40
2023-06-14T04:20:28.563Z,6.40
2023-06-14T04:22:58.647Z,3.40
2023-06-14T04:25:27.912Z,4.40
2023-06-14T04:27:56.922Z,4.40
2023-06-14T04:30:27.591Z,6.00
2023-06-14T04:32:57.354Z,4.70
2023-06-14T04:35:26.845Z,6.40
2023-06-14T04:37:56.539Z,6.20
2023-06-14T04:40:24.618Z,7.60
2023-06-14T04:49:42.172Z,4.70
2023-06-14T04:59:56.590Z,4.80
2023-06-14T05:02:27.101Z,6.40
2023-06-14T05:04:58.199Z,6.80
2023-06-14T05:15:03.049Z,10.20
2023-06-14T05:17:30.899Z,6.40
2023-06-14T05:27:37.145Z,10.90
2023-06-14T05:37:49.289Z,11.80
2023-06-14T05:40:18.553Z,5.30
2023-06-14T05:42:46.750Z,14.20
2023-06-14T05:52:58.884Z,13.90
2023-06-14T05:55:26.527Z,12.90
2023-06-14T06:04:48.634Z,9.00
2023-06-14T06:14:00.898Z,5.10
2023-06-14T06:16:28.585Z,5.00
2023-06-14T06:18:56.495Z,5.70
2023-06-14T06:21:23.915Z,3.80
2023-06-14T06:23:51.452Z,6.20
2023-06-14T06:26:19.191Z,7.40
2023-06-14T06:28:46.941Z,7.70
2023-06-14T06:31:14.620Z,2.70
2023-06-14T06:33:42.274Z,6.10
2023-06-14T06:36:11.556Z,5.80
2023-06-14T06:38:40.556Z,5.00
2023-06-14T06:41:08.220Z,4.60
2023-06-14T06:43:35.892Z,6.60
2023-06-14T06:46:03.772Z,5.50
2023-06-14T06:48:31.506Z,17.90
2023-06-14T06:50:58.965Z,6.70
2023-06-14T06:53:39.270Z,4.00
2023-06-14T06:56:08.430Z,7.50
2023-06-14T07:06:20.387Z,10.90
2023-06-14T07:08:51.141Z,9.00
2023-06-14T07:11:18.768Z,6.70
2023-06-14T07:13:46.780Z,10.60
2023-06-14T07:23:56.384Z,5.60
2023-06-14T07:26:24.321Z,4.80
2023-06-14T07:35:50.266Z,4.60
2023-06-14T07:46:06.385Z,6.60
2023-06-14T07:48:36.002Z,10.60
2023-06-14T07:57:52.006Z,5.90
2023-06-14T08:00:21.408Z,8.90
2023-06-14T08:02:49.192Z,10.30
2023-06-14T08:05:17.481Z,4.00
2023-06-14T08:07:45.572Z,4.70
2023-06-14T08:10:13.143Z,4.30
2023-06-14T08:12:40.825Z,2.30
2023-06-14T08:22:49.477Z,5.30
2023-06-14T08:25:17.253Z,7.90
2023-06-14T08:27:45.737Z,5.70
2023-06-14T08:37:53.396Z,4.60
2023-06-14T08:40:22.790Z,6.70
2023-06-14T08:42:54.633Z,3.60
2023-06-14T08:45:25.406Z,5.80
2023-06-14T08:55:43.413Z,4.70
2023-06-14T08:58:15.985Z,4.20
2023-06-14T09:00:45.985Z,11.00
2023-06-14T09:03:17.005Z,8.10
2023-06-14T09:05:45.270Z,7.60
2023-06-14T09:15:53.833Z,5.10
2023-06-14T09:18:21.796Z,6.50
2023-06-14T09:20:49.288Z,5.10
2023-06-14T09:23:22.246Z,2.80
2023-06-14T09:25:49.190Z,5.60
2023-06-14T09:28:17.310Z,3.10
2023-06-14T09:30:44.407Z,4.60
2023-06-14T09:33:11.467Z,9.30
2023-06-14T09:35:38.842Z,2.80
2023-06-14T09:38:07.916Z,3.70
2023-06-14T09:40:37.249Z,4.10
2023-06-14T09:43:10.412Z,3.30
2023-06-14T09:48:08.626Z,32.60
2023-06-14T09:50:36.107Z,4.60
2023-06-14T09:53:07.899Z,2.90
2023-06-14T09:55:36.848Z,3.30
2023-06-14T09:58:08.415Z,5.40
2023-06-14T10:00:37.651Z,9.80
2023-06-14T10:03:15.372Z,14.50
2023-06-14T10:05:46.601Z,5.50
2023-06-14T10:08:18.505Z,3.20
2023-06-14T10:10:45.708Z,3.00
2023-06-14T10:13:13.394Z,2.80
2023-06-14T10:16:01.084Z,5.90
2023-06-14T10:18:49.597Z,2.80
2023-06-14T10:21:24.466Z,4.10
2023-06-14T10:23:52.292Z,17.60
2023-06-14T10:26:24.011Z,6.30
2023-06-14T10:29:02.548Z,4.80
2023-06-14T10:32:00.377Z,3.30
2023-06-14T10:34:28.673Z,5.30
2023-06-14T10:37:11.720Z,4.60
2023-06-14T10:39:43.057Z,2.80
2023-06-14T10:42:10.712Z,4.20
2023-06-14T10:44:52.029Z,5.00
2023-06-14T10:47:29.452Z,6.60
2023-06-14T10:50:04.842Z,6.80
2023-06-14T10:52:35.956Z,9.50
2023-06-14T10:55:13.695Z,3.80
2023-06-14T10:57:56.520Z,6.00
2023-06-14T11:00:26.525Z,3.90
2023-06-14T11:03:25.222Z,1.70
2023-06-14T11:05:58.902Z,2.50
2023-06-14T11:08:46.871Z,7.20
2023-06-14T11:11:14.084Z,10.90
2023-06-14T11:13:44.703Z,5.40
2023-06-14T11:16:16.103Z,19.80
2023-06-14T11:18:43.101Z,6.60
2023-06-14T11:21:09.992Z,6.60
2023-06-14T11:23:37.510Z,5.70
2023-06-14T11:26:07.838Z,88.60
2023-06-14T11:28:39.588Z,4.20
2023-06-14T11:31:06.787Z,3.70
2023-06-14T11:33:34.607Z,3.40
2023-06-14T11:36:08.831Z,7.30
2023-06-14T11:38:37.400Z,4.80
2023-06-14T11:41:04.372Z,4.50
2023-06-14T11:43:33.551Z,8.10
2023-06-14T11:46:08.497Z,4.70
2023-06-14T11:48:41.078Z,3.90
2023-06-14T11:51:08.042Z,6.70
2023-06-14T11:53:54.671Z,3.10
2023-06-14T11:56:21.890Z,2.20
2023-06-14T11:58:48.499Z,2.60
2023-06-14T12:01:17.703Z,8.10
2023-06-14T12:03:51.342Z,3.60
2023-06-14T12:06:34.669Z,2.70
2023-06-14T12:09:05.244Z,5.30
2023-06-14T12:11:35.069Z,4.40
2023-06-14T12:14:04.711Z,5.00
2023-06-14T12:16:34.451Z,11.40
2023-06-14T12:19:08.841Z,5.20
2023-06-14T12:21:36.836Z,2.80
2023-06-14T12:24:04.584Z,2.40
2023-06-14T12:26:32.203Z,4.40
2023-06-14T12:28:59.282Z,3.40
2023-06-14T12:31:27.433Z,11.10
2023-06-14T12:33:54.322Z,2.90
2023-06-14T12:36:21.447Z,3.40
2023-06-14T12:38:48.464Z,4.80
2023-06-14T12:41:16.349Z,3.50
2023-06-14T12:43:44.606Z,3.50
2023-06-14T12:46:13.142Z,23.10
2023-06-14T12:48:40.145Z,3.70
2023-06-14T12:51:07.391Z,3.60
2023-06-14T12:53:34.877Z,12.10
2023-06-14T12:56:01.692Z,3.40
2023-06-14T12:58:28.876Z,6.70
2023-06-14T13:00:56.198Z,5.20
2023-06-14T13:03:23.077Z,4.30
2023-06-14T13:05:50.205Z,4.20
2023-06-14T13:08:17.157Z,2.30
2023-06-14T13:10:44.283Z,1.90
2023-06-14T13:13:14.188Z,7.60
2023-06-14T13:15:41.045Z,4.30
2023-06-14T13:18:07.816Z,3.50
2023-06-14T13:20:34.960Z,2.30
2023-06-14T13:23:04.029Z,4.40
2023-06-14T13:25:31.199Z,4.10
2023-06-14T13:27:58.332Z,3.60
2023-06-14T13:30:25.391Z,3.40
2023-06-14T13:32:52.761Z,5.00
2023-06-14T13:35:20.090Z,4.10
2023-06-14T13:37:46.830Z,1.90
2023-06-14T13:40:14.410Z,3.40
2023-06-14T13:42:41.446Z,12.30
2023-06-14T13:45:09.000Z,4.20
2023-06-14T13:47:35.754Z,6.40
2023-06-14T13:50:04.423Z,6.10
2023-06-14T13:52:31.949Z,2.00
2023-06-14T13:54:58.831Z,4.30
2023-06-14T13:57:26.487Z,1.50
2023-06-14T13:59:56.018Z,6.50
2023-06-14T14:02:22.940Z,2.80
2023-06-14T14:04:54.084Z,3.40
2023-06-14T14:07:22.769Z,3.40
2023-06-14T14:09:50.023Z,3.20
2023-06-14T14:12:16.910Z,3.60
2023-06-14T14:14:44.318Z,5.50
2023-06-14T14:17:11.299Z,3.20
2023-06-14T14:19:38.311Z,3.60
2023-06-14T14:22:06.185Z,2.40
2023-06-14T14:24:33.036Z,2.40
2023-06-14T14:27:00.996Z,2.20
2023-06-14T14:29:29.889Z,3.20
2023-06-14T14:31:57.326Z,3.90
2023-06-14T14:34:27.256Z,4.70
2023-06-14T14:36:54.404Z,4.30
2023-06-14T14:39:21.281Z,4.60
2023-06-14T14:41:48.200Z,5.50
2023-06-14T14:44:15.363Z,4.10
2023-06-14T14:46:45.206Z,5.30
2023-06-14T14:49:12.164Z,7.30
2023-06-14T14:51:40.479Z,5.60
2023-06-14T14:54:07.437Z,14.60
2023-06-14T14:56:35.832Z,2.60
2023-06-14T14:59:03.581Z,3.50
2023-06-14T15:01:30.751Z,2.90
2023-06-14T15:04:00.226Z,3.60
2023-06-14T15:06:27.496Z,3.70
2023-06-14T15:08:54.363Z,2.50
2023-06-14T15:11:21.892Z,10.50
2023-06-14T15:13:49.757Z,8.20
2023-06-14T15:16:16.908Z,6.10
2023-06-14T15:18:43.854Z,2.60
2023-06-14T15:21:12.927Z,12.60
2023-06-14T15:23:39.705Z,8.20
2023-06-14T15:26:06.528Z,5.30
2023-06-14T15:28:33.849Z,7.70
2023-06-14T15:31:01.286Z,3.00
2023-06-14T15:33:28.837Z,3.00
2023-06-14T15:35:56.251Z,4.20
2023-06-14T15:38:23.568Z,3.50
2023-06-14T15:40:52.126Z,3.30
2023-06-14T15:43:19.776Z,3.30
2023-06-14T15:45:46.624Z,1.90
2023-06-14T15:48:13.746Z,2.40
2023-06-14T15:50:40.997Z,1.80
2023-06-14T15:53:07.745Z,3.90
2023-06-14T15:55:34.482Z,2.10
2023-06-14T15:58:01.460Z,4.70
2023-06-14T16:00:28.569Z,3.10
2023-06-14T16:02:55.585Z,2.70
2023-06-14T16:05:22.782Z,4.20
2023-06-14T16:07:49.716Z,5.10
2023-06-14T16:10:16.922Z,2.10
2023-06-14T16:12:44.531Z,2.70
2023-06-14T16:15:11.575Z,2.20
2023-06-14T16:17:38.734Z,2.60
2023-06-14T16:20:06.779Z,3.60
2023-06-14T16:22:33.750Z,5.30
2023-06-14T16:25:00.782Z,2.40
2023-06-14T16:27:27.867Z,3.50
2023-06-14T16:29:54.803Z,3.90
2023-06-14T16:32:21.686Z,3.10
2023-06-14T16:34:48.818Z,2.80
2023-06-14T16:37:16.039Z,3.70
2023-06-14T16:39:42.969Z,5.30
2023-06-14T16:42:11.243Z,2.20
2023-06-14T16:44:38.394Z,4.70
2023-06-14T16:47:07.184Z,2.10
2023-06-14T16:49:34.024Z,2.10
2023-06-14T16:52:00.888Z,2.40
2023-06-14T16:54:29.159Z,1.90
2023-06-14T16:56:56.129Z,1.80
2023-06-14T16:59:22.946Z,7.60
2023-06-14T17:01:51.291Z,2.60
2023-06-14T17:04:19.133Z,3.90
2023-06-14T17:06:46.531Z,2.70
2023-06-14T17:09:14.049Z,3.40
2023-06-14T17:11:41.958Z,3.20
2023-06-14T17:14:10.027Z,3.50
2023-06-14T17:16:38.025Z,1.90
2023-06-14T17:19:08.041Z,2.50
2023-06-14T17:21:35.165Z,2.70
2023-06-14T17:24:03.214Z,3.20
2023-06-14T17:26:30.600Z,5.10
2023-06-14T17:28:57.803Z,6.40
2023-06-14T17:31:24.717Z,2.80
2023-06-14T17:33:51.736Z,6.40
2023-06-14T17:36:18.815Z,3.70
2023-06-14T17:38:46.282Z,6.40
2023-06-14T17:41:14.964Z,27.50
2023-06-14T17:43:42.290Z,10.70
2023-06-14T17:46:09.465Z,16.60
2023-06-14T17:48:37.209Z,9.30
2023-06-14T17:51:04.657Z,9.00
2023-06-14T17:53:31.736Z,9.40
2023-06-14T17:55:59.073Z,8.90
2023-06-14T17:58:26.011Z,18.40
2023-06-14T18:00:53.187Z,13.60
2023-06-14T18:03:20.345Z,33.20
2023-06-14T18:05:47.477Z,9.70
2023-06-14T18:08:15.012Z,7.30
2023-06-14T18:10:42.568Z,6.20
2023-06-14T18:13:09.516Z,10.50
2023-06-14T18:15:37.285Z,5.20
2023-06-14T18:18:04.781Z,5.50
2023-06-14T18:20:33.020Z,2.90
2023-06-14T18:23:00.279Z,3.70
2023-06-14T18:25:27.128Z,5.50
2023-06-14T18:27:53.956Z,3.70
2023-06-14T18:30:22.899Z,4.90
2023-06-14T18:32:50.214Z,2.40
2023-06-14T18:35:17.733Z,2.90
2023-06-14T18:37:45.093Z,3.50
2023-06-14T18:40:13.492Z,4.30
2023-06-14T18:42:40.545Z,3.50
2023-06-14T18:45:08.290Z,3.50
2023-06-14T18:47:35.817Z,4.10
2023-06-14T18:50:03.323Z,3.90
2023-06-14T18:52:30.792Z,7.90
2023-06-14T18:54:57.963Z,4.10
2023-06-14T18:57:25.996Z,4.40
2023-06-14T18:59:53.163Z,5.10
2023-06-14T19:02:21.640Z,3.30
2023-06-14T19:04:48.485Z,3.90
2023-06-14T19:07:15.652Z,3.90
2023-06-14T19:09:44.616Z,4.80
2023-06-14T19:12:12.718Z,4.60
2023-06-14T19:14:40.400Z,1.90
2023-06-14T19:17:10.265Z,3.60
2023-06-14T19:19:37.176Z,3.60
2023-06-14T19:22:04.772Z,3.90
2023-06-14T19:24:32.168Z,3.40
2023-06-14T19:26:59.588Z,3.20
2023-06-14T19:29:27.029Z,4.90
2023-06-14T19:31:54.315Z,5.50
2023-06-14T19:34:21.548Z,9.30
2023-06-14T19:36:48.479Z,7.40
2023-06-14T19:39:15.342Z,9.60
2023-06-14T19:41:44.335Z,23.70
2023-06-14T19:44:11.275Z,33.60
2023-06-14T19:46:38.357Z,27.80
2023-06-14T19:49:05.309Z,88.50
2023-06-14T19:51:33.033Z,217.30
2023-06-14T19:53:59.973Z,229.40
2023-06-14T19:56:27.064Z,141.30
2023-06-14T19:58:53.958Z,145.50
2023-06-14T20:01:20.979Z,85.20
2023-06-14T20:03:49.779Z,137.90
2023-06-14T20:06:17.361Z,90.30
2023-06-14T20:08:44.644Z,28.10
2023-06-14T20:11:13.613Z,17.90
2023-06-14T20:13:41.371Z,19.40
2023-06-14T20:16:08.461Z,11.70
2023-06-14T20:18:35.777Z,8.90
2023-06-14T20:21:03.448Z,15.20
2023-06-14T20:23:31.191Z,10.00
2023-06-14T20:25:57.981Z,21.70
2023-06-14T20:28:24.912Z,41.10
2023-06-14T20:30:51.821Z,16.40
2023-06-14T20:33:19.735Z,15.90
2023-06-14T20:35:46.526Z,9.00
2023-06-14T20:38:13.417Z,7.90
2023-06-14T20:40:40.315Z,6.30
2023-06-14T20:43:12.710Z,3.80
2023-06-14T20:45:40.187Z,3.60
2023-06-14T20:48:07.379Z,4.40
2023-06-14T20:50:35.366Z,2.60
2023-06-14T20:53:02.328Z,3.30
2023-06-14T20:55:29.249Z,3.10
2023-06-14T20:57:56.553Z,3.90
2023-06-14T21:00:23.981Z,4.90
2023-06-14T21:02:51.260Z,4.30
2023-06-14T21:05:18.393Z,2.40
2023-06-14T21:07:45.622Z,1.60
2023-06-14T21:10:12.574Z,2.30
2023-06-14T21:12:40.914Z,5.70
2023-06-14T21:15:09.321Z,2.10
2023-06-14T21:17:36.397Z,2.90
2023-06-14T21:20:05.064Z,2.90
2023-06-14T21:22:34.401Z,7.00
2023-06-14T21:25:01.723Z,4.30
2023-06-14T21:27:29.032Z,2.00
2023-06-14T21:29:56.150Z,2.90
2023-06-14T21:32:23.124Z,2.90
2023-06-14T21:34:50.362Z,4.10
2023-06-14T21:37:17.564Z,3.20
2023-06-14T21:39:44.466Z,5.80
2023-06-14T21:42:11.975Z,1.70
2023-06-14T21:44:42.936Z,3.10
2023-06-14T21:47:10.976Z,4.00
2023-06-14T21:49:41.321Z,2.80
2023-06-14T21:52:08.650Z,3.80
2023-06-14T21:54:37.135Z,2.60
2023-06-14T21:57:04.501Z,3.30
2023-06-14T21:59:31.746Z,1.60
2023-06-14T22:01:58.509Z,3.20
2023-06-14T22:04:25.428Z,3.10
2023-06-14T22:06:52.927Z,4.20
2023-06-14T22:09:21.677Z,5.60
2023-06-14T22:11:50.078Z,3.10
2023-06-14T22:14:21.774Z,3.30
2023-06-14T22:16:48.581Z,3.90
2023-06-14T22:19:15.803Z,2.20
2023-06-14T22:21:51.592Z,5.40
2023-06-14T22:24:18.968Z,2.70
2023-06-14T22:26:48.026Z,4.30
2023-06-14T22:29:17.212Z,2.70
2023-06-14T22:31:44.710Z,7.50
2023-06-14T22:34:11.688Z,2.40
2023-06-14T22:36:39.092Z,1.90
2023-06-14T22:39:06.548Z,2.70
2023-06-14T22:41:33.399Z,7.30
2023-06-14T22:44:01.136Z,2.60
2023-06-14T22:46:28.589Z,2.90
2023-06-14T22:48:55.714Z,7.80
2023-06-14T22:51:23.190Z,2.40
2023-06-14T22:53:50.676Z,4.30
2023-06-14T22:56:19.226Z,5.50
2023-06-14T22:58:46.074Z,3.70
2023-06-14T23:01:17.286Z,4.50
2023-06-14T23:03:45.759Z,3.40
2023-06-14T23:06:14.183Z,3.60
2023-06-14T23:08:44.428Z,3.30
2023-06-14T23:11:17.075Z,2.90
2023-06-14T23:13:48.327Z,2.20
2023-06-14T23:16:15.827Z,2.40
2023-06-14T23:18:42.624Z,2.50
2023-06-14T23:21:11.823Z,7.70
2023-06-14T23:23:40.818Z,3.00
2023-06-14T23:26:08.986Z,2.00
2023-06-14T23:28:36.469Z,5.30
2023-06-14T23:31:07.887Z,5.00
2023-06-14T23:33:35.148Z,5.20
2023-06-14T23:36:04.008Z,2.00
2023-06-14T23:38:31.702Z,4.80
2023-06-14T23:41:02.439Z,4.70
2023-06-14T23:43:30.399Z,3.80
2023-06-14T23:45:58.181Z,3.80
2023-06-14T23:48:26.972Z,3.10
2023-06-14T23:50:54.329Z,2.40
2023-06-14T23:53:23.723Z,5.10
2023-06-14T23:55:53.136Z,3.40
2023-06-14T23:59:33.584Z,6.90
